Home > Products > Valid Products > MTR

000
SAUS44 KLZK 050154
MTRMWT
METAR KMWT 050153Z AUTO 00000KT 10SM SCT095 27/22 A2995 RMK AO2
SLP128 T02670222





000
SAUS44 KLZK 050054
MTRMWT
METAR KMWT 050053Z AUTO 00000KT 10SM FEW110 28/22 A2993 RMK AO2
SLP124 T02780222





000
SAUS44 KLZK 050054
MTRMWT
METAR KMWT 050053Z AUTO 00000KT 10SM FEW110 28/22 A2993 RMK AO2
SLP124 T02780222





000
SAUS44 KLZK 042354
MTRMWT
METAR KMWT 042353Z AUTO 00000KT 10SM CLR 29/23 A2992 RMK AO2 SLP120
T02940228 10350 20283 58009





000
SAUS44 KLZK 042354
MTRMWT
METAR KMWT 042353Z AUTO 00000KT 10SM CLR 29/23 A2992 RMK AO2 SLP120
T02940228 10350 20283 58009





000
SAUS44 KLZK 042254
MTRMWT
METAR KMWT 042253Z AUTO 00000KT 10SM SCT110 29/22 A2993 RMK AO2
SLP123 T02940222





000
SAUS44 KLZK 042254
MTRMWT
METAR KMWT 042253Z AUTO 00000KT 10SM SCT110 29/22 A2993 RMK AO2
SLP123 T02940222





000
SAUS44 KLZK 042154
MTRMWT
METAR KMWT 042153Z AUTO 00000KT 10SM FEW095 FEW110 29/19 A2995 RMK
AO2 SLP128 T02940194





000
SAUS44 KLZK 042054
MTRMWT
METAR KMWT 042053Z AUTO 00000KT 10SM FEW110 32/21 A2995 RMK AO2
SLP128 T03170211 56010





000
SAUS44 KLZK 042054
MTRMWT
METAR KMWT 042053Z AUTO 00000KT 10SM FEW110 32/21 A2995 RMK AO2
SLP128 T03170211 56010





000
SAUS44 KLZK 041954
MTRMWT
METAR KMWT 041953Z AUTO 20004KT 10SM CLR 34/18 A2995 RMK AO2 SLP129
T03390178





000
SAUS44 KLZK 041954
MTRMWT
METAR KMWT 041953Z AUTO 20004KT 10SM CLR 34/18 A2995 RMK AO2 SLP129
T03390178





000
SAUS44 KLZK 041854
MTRMWT
METAR KMWT 041853Z AUTO VRB03KT 10SM FEW110 33/19 A2997 RMK AO2
SLP134 T03330194





000
SAUS44 KLZK 041754
MTRMWT
METAR KMWT 041753Z AUTO 10SM CLR 34/19 A2998 RMK AO2 SLP138
T03390189 10344 20200 58004





000
SAUS44 KLZK 041654
MTRMWT
METAR KMWT 041653Z AUTO 17005KT 10SM CLR 33/18 A3000 RMK AO2 SLP142
T03330183





000
SAUS44 KLZK 041554
MTRMWT
METAR KMWT 041553Z AUTO VRB04KT 10SM CLR 32/19 A3000 RMK AO2 SLP144
T03220194





000
SAUS44 KLZK 041454
MTRMWT
METAR KMWT 041453Z AUTO 00000KT 10SM CLR 30/20 A2999 RMK AO2 SLP142
T03000200 50002





000
SAUS44 KLZK 041355
MTRMWT
METAR KMWT 041353Z AUTO 00000KT 10SM CLR 28/21 A3000 RMK AO2 SLP144
T02780206





000
SAUS44 KLZK 041254
MTRMWT
METAR KMWT 041253Z AUTO 00000KT 10SM CLR 22/20 A3000 RMK AO2 SLP146
T02220200





000
SAUS44 KLZK 041154
MTRMWT
METAR KMWT 041153Z AUTO 00000KT 7SM CLR 20/19 A2999 RMK AO2 SLP142
T02000189 10217 20200 53013





000
SAUS44 KLZK 041154
MTRMWT
METAR KMWT 041153Z AUTO 00000KT 7SM CLR 20/19 A2999 RMK AO2 SLP142
T02000189 10217 20200 53013





000
SAUS44 KLZK 041054
MTRMWT
METAR KMWT 041053Z AUTO 00000KT 7SM CLR 20/19 A2996 RMK AO2 SLP133
T02000189





000
SAUS44 KLZK 041054
MTRMWT
METAR KMWT 041053Z AUTO 00000KT 7SM CLR 20/19 A2996 RMK AO2 SLP133
T02000189





000
SAUS44 KLZK 040954
MTRMWT
METAR KMWT 040953Z AUTO 00000KT 8SM CLR 21/19 A2995 RMK AO2 SLP126
T02060194





000
SAUS44 KLZK 040854
MTRMWT
METAR KMWT 040853Z AUTO 00000KT 10SM CLR 21/19 A2995 RMK AO2 SLP126
T02110189 53004





000
SAUS44 KLZK 040754
MTRMWT
METAR KMWT 040753Z AUTO 00000KT 10SM CLR 21/19 A2994 RMK AO2 SLP125
T02110194





000
SAUS44 KLZK 040754
MTRMWT
METAR KMWT 040753Z AUTO 00000KT 10SM CLR 21/19 A2994 RMK AO2 SLP125
T02110194





000
SAUS44 KLZK 040654
MTRMWT
METAR KMWT 040653Z AUTO 00000KT 10SM CLR 21/20 A2994 RMK AO2 SLP122
T02110200





000
SAUS44 KLZK 040554
MTRMWT
METAR KMWT 040553Z AUTO 00000KT 10SM CLR 22/20 A2994 RMK AO2 SLP123
T02170200 10333 20217 403670183 50002





000
SAUS44 KLZK 040454
MTRMWT
METAR KMWT 040453Z AUTO 00000KT 10SM CLR 23/19 A2994 RMK AO2 SLP125
T02280194





000
SAUS44 KLZK 040354
MTRMWT
METAR KMWT 040353Z AUTO 00000KT 10SM CLR 24/19 A2994 RMK AO2 SLP124
T02390189





000
SAUS44 KLZK 040254
MTRMWT
METAR KMWT 040253Z AUTO 00000KT 10SM CLR 26/18 A2993 RMK AO2 SLP121
T02610178 53007





000
SAUS44 KLZK 040254
MTRMWT
METAR KMWT 040253Z AUTO 00000KT 10SM CLR 26/18 A2993 RMK AO2 SLP121
T02610178 53007





000
SAUS44 KLZK 040154
MTRMWT
METAR KMWT 040153Z AUTO 00000KT 10SM CLR 27/19 A2992 RMK AO2 SLP117
T02720189





000
SAUS44 KLZK 040054
MTRMWT
METAR KMWT 040053Z AUTO 00000KT 10SM CLR 29/18 A2992 RMK AO2 SLP118
T02890183





000
SAUS44 KLZK 032354
MTRMWT
METAR KMWT 032353Z AUTO 15003KT 10SM CLR 33/18 A2991 RMK AO2 SLP114
T03330183 10367 20317 58006





000
SAUS44 KLZK 032254
MTRMWT
METAR KMWT 032253Z AUTO VRB03KT 10SM CLR 35/15 A2991 RMK AO2 SLP115
T03500150





000
SAUS44 KLZK 032154
MTRMWT
METAR KMWT 032153Z AUTO VRB04KT 10SM CLR 36/14 A2992 RMK AO2 SLP119
T03560144





000
SAUS44 KLZK 032054
MTRMWT
METAR KMWT 032053Z AUTO VRB04KT 10SM CLR 35/16 A2992 RMK AO2 SLP119
T03500156 58010





000
SAUS44 KLZK 031954
MTRMWT
METAR KMWT 031953Z AUTO 18004KT 10SM CLR 34/15 A2994 RMK AO2 SLP126
T03440150





000
SAUS44 KLZK 031854
MTRMWT
METAR KMWT 031853Z AUTO 00000KT 10SM CLR 35/16 A2995 RMK AO2 SLP127
T03500161





000
SAUS44 KLZK 031754
MTRMWT
METAR KMWT 031753Z AUTO 32004KT 10SM CLR 34/17 A2996 RMK AO2 SLP130
T03390167 10350 20183 58001





000
SAUS44 KLZK 031754
MTRMWT
METAR KMWT 031753Z AUTO 32004KT 10SM CLR 34/17 A2996 RMK AO2 SLP130
T03390167 10350 20183 58001





000
SAUS44 KLZK 031654
MTRMWT
METAR KMWT 031653Z AUTO 32003KT 10SM CLR 33/19 A2996 RMK AO2 SLP132
T03280194





000
SAUS44 KLZK 031554
MTRMWT
METAR KMWT 031553Z AUTO 00000KT 10SM CLR 31/19 A2997 RMK AO2 SLP134
T03060194





000
SAUS44 KLZK 031454
MTRMWT
METAR KMWT 031453Z AUTO 00000KT 10SM CLR 27/18 A2996 RMK AO2 SLP132
T02720183 51006





000
SAUS44 KLZK 031354
MTRMWT
METAR KMWT 031353Z AUTO 00000KT 10SM CLR 25/18 A2996 RMK AO2 SLP131
T02500183





000
SAUS44 KLZK 031254
MTRMWT
METAR KMWT 031253Z AUTO 00000KT 10SM CLR 22/19 A2995 RMK AO2 SLP131
T02170189





000
SAUS44 KLZK 031154
MTRMWT
METAR KMWT 031153Z AUTO 00000KT 9SM CLR 18/17 A2994 RMK AO2 SLP127
T01830172 10206 20183 53010





000
SAUS44 KLZK 031154
MTRMWT
METAR KMWT 031153Z AUTO 00000KT 9SM CLR 18/17 A2994 RMK AO2 SLP127
T01830172 10206 20183 53010





000
SAUS44 KLZK 031054
MTRMWT
METAR KMWT 031053Z AUTO 00000KT 10SM CLR 18/17 A2993 RMK AO2 SLP123
T01830172





000
SAUS44 KLZK 030954
MTRMWT
METAR KMWT 030953Z AUTO 00000KT 10SM CLR 19/18 A2992 RMK AO2 SLP119
T01890178





000
SAUS44 KLZK 030854
MTRMWT
METAR KMWT 030853Z AUTO 00000KT 10SM CLR 19/18 A2991 RMK AO2 SLP115
T01940178 55004





000
SAUS44 KLZK 030754
MTRMWT
METAR KMWT 030753Z AUTO 00000KT 10SM CLR 19/18 A2991 RMK AO2 SLP114
T01940178





000
SAUS44 KLZK 030754
MTRMWT
METAR KMWT 030753Z AUTO 00000KT 10SM CLR 19/18 A2991 RMK AO2 SLP114
T01940178





000
SAUS44 KLZK 030654
MTRMWT
METAR KMWT 030653Z AUTO 00000KT 10SM CLR 20/18 A2992 RMK AO2 SLP117
T02000183





000
SAUS44 KLZK 030554
MTRMWT
METAR KMWT 030553Z AUTO 00000KT 10SM CLR 21/18 A2993 RMK AO2 SLP120
T02060183 10328 20206 403610178 51012





000
SAUS44 KLZK 030454
MTRMWT
METAR KMWT 030453Z AUTO 00000KT 10SM CLR 22/17 A2992 RMK AO2 SLP119
T02170172





000
SAUS44 KLZK 030354
MTRMWT
METAR KMWT 030353Z AUTO 00000KT 10SM CLR 23/16 A2991 RMK AO2 SLP116
T02330161





000
SAUS44 KLZK 030254
MTRMWT
METAR KMWT 030253Z AUTO 00000KT 10SM CLR 25/15 A2989 RMK AO2 SLP108
T02500150 53003





000
SAUS44 KLZK 030154
MTRMWT
METAR KMWT 030153Z AUTO 00000KT 10SM CLR 27/17 A2988 RMK AO2 SLP105
T02670167





000
SAUS44 KLZK 030154
MTRMWT
METAR KMWT 030153Z AUTO 00000KT 10SM CLR 27/17 A2988 RMK AO2 SLP105
T02670167





000
SAUS44 KLZK 030054
MTRMWT
METAR KMWT 030053Z AUTO 00000KT 10SM CLR 28/18 A2988 RMK AO2 SLP107
T02830178





000
SAUS44 KLZK 022354
MTRMWT
METAR KMWT 022353Z AUTO 00000KT 10SM CLR 33/14 A2988 RMK AO2 SLP107
T03280144 10361 20328 56014





000
SAUS44 KLZK 022254
MTRMWT
METAR KMWT 022253Z AUTO 00000KT 10SM CLR 34/14 A2989 RMK AO2 SLP110
T03390144





000
SAUS44 KLZK 022154
MTRMWT
METAR KMWT 022153Z AUTO VRB04KT 10SM CLR 36/12 A2991 RMK AO2 SLP113
T03560122





000
SAUS44 KLZK 022054
MTRMWT
METAR KMWT 022053Z AUTO 00000KT 10SM CLR 36/13 A2992 RMK AO2 SLP119
T03560133 56016





000
SAUS44 KLZK 021954
MTRMWT
METAR KMWT 021953Z AUTO VRB05KT 10SM CLR 35/13 A2994 RMK AO2 SLP124
T03500133





000
SAUS44 KLZK 021954
MTRMWT
METAR KMWT 021953Z AUTO VRB05KT 10SM CLR 35/13 A2994 RMK AO2 SLP124
T03500133





000
SAUS44 KLZK 021854
MTRMWT
METAR KMWT 021853Z AUTO VRB05KT 10SM CLR 34/13 A2996 RMK AO2 SLP130
T03440128





000
SAUS44 KLZK 021854
MTRMWT
METAR KMWT 021853Z AUTO VRB05KT 10SM CLR 34/13 A2996 RMK AO2 SLP130
T03440128





000
SAUS44 KLZK 021754
MTRMWT
METAR KMWT 021753Z AUTO 00000KT 10SM CLR 34/14 A2997 RMK AO2 SLP135
T03390144 10339 20178 58009





000
SAUS44 KLZK 021754
MTRMWT
METAR KMWT 021753Z AUTO 00000KT 10SM CLR 34/14 A2997 RMK AO2 SLP135
T03390144 10339 20178 58009





000
SAUS44 KLZK 021654
MTRMWT
METAR KMWT 021653Z AUTO 00000KT 10SM CLR 33/14 A2999 RMK AO2 SLP142
T03280144





000
SAUS44 KLZK 021554
MTRMWT
METAR KMWT 021553Z AUTO 00000KT 10SM CLR 32/18 A3000 RMK AO2 SLP144
T03170178





000
SAUS44 KLZK 021454
MTRMWT
METAR KMWT 021453Z AUTO 00000KT 10SM CLR 29/19 A3000 RMK AO2 SLP146
T02890194 51009





000
SAUS44 KLZK 021454
MTRMWT
METAR KMWT 021453Z AUTO 00000KT 10SM CLR 29/19 A3000 RMK AO2 SLP146
T02890194 51009





000
SAUS44 KLZK 021354
MTRMWT
METAR KMWT 021353Z AUTO 00000KT 10SM CLR 25/19 A3000 RMK AO2 SLP146
T02500194





000
SAUS44 KLZK 021254
MTRMWT
METAR KMWT 021253Z AUTO 00000KT 10SM CLR 21/19 A2998 RMK AO2 SLP142
T02060189





000
SAUS44 KLZK 021154
MTRMWT
METAR KMWT 021153Z AUTO 00000KT 6SM BR CLR 18/17 A2997 RMK AO2
SLP138 T01780167 10211 20178 53002





000
SAUS44 KLZK 021154
MTRMWT
METAR KMWT 021153Z AUTO 00000KT 6SM BR CLR 18/17 A2997 RMK AO2
SLP138 T01780167 10211 20178 53002





000
SAUS44 KLZK 021054
MTRMWT
METAR KMWT 021053Z AUTO 00000KT 7SM CLR 18/17 A2996 RMK AO2 SLP132
T01830172





000
SAUS44 KLZK 020954
MTRMWT
METAR KMWT 020953Z AUTO 00000KT 7SM CLR 19/18 A2997 RMK AO2 SLP134
T01890178





000
SAUS44 KLZK 020854
MTRMWT
METAR KMWT 020853Z AUTO 00000KT 8SM CLR 19/18 A2997 RMK AO2 SLP134
T01940183 55005





000
SAUS44 KLZK 020754
MTRMWT
METAR KMWT 020753Z AUTO 00000KT 9SM CLR 20/19 A2997 RMK AO2 SLP133
T02000189





000
SAUS44 KLZK 020654
MTRMWT
METAR KMWT 020653Z AUTO 00000KT 10SM CLR 21/19 A2997 RMK AO2 SLP136
T02060194





000
SAUS44 KLZK 020654
MTRMWT
METAR KMWT 020653Z AUTO 00000KT 10SM CLR 21/19 A2997 RMK AO2 SLP136
T02060194





000
SAUS44 KLZK 020554
MTRMWT
METAR KMWT 020553Z AUTO 00000KT 10SM CLR 21/19 A2998 RMK AO2 SLP139
T02110194 10317 20211 403670178 51004





000
SAUS44 KLZK 020554
MTRMWT
METAR KMWT 020553Z AUTO 00000KT 10SM CLR 21/19 A2998 RMK AO2 SLP139
T02110194 10317 20211 403670178 51004





000
SAUS44 KLZK 020454
MTRMWT
METAR KMWT 020453Z AUTO 00000KT 10SM CLR 22/19 A2998 RMK AO2 SLP139
T02220194





000
SAUS44 KLZK 020354
MTRMWT
METAR KMWT 020353Z AUTO 00000KT 10SM CLR 23/19 A2998 RMK AO2 SLP139
T02280194





000
SAUS44 KLZK 020254
MTRMWT
METAR KMWT 020253Z AUTO 00000KT 10SM CLR 24/19 A2997 RMK AO2 SLP135
T02440189 53007





    US Dept of Commerce
    National Oceanic and Atmospheric Administration
    National Weather Service
    1325 East West Highway
    Silver Spring, MD 20910
    Page Author: NWS Internet Services Team
Disclaimer
Information Quality
Credits
Glossary
Privacy Policy
Freedom of Information Act (FOIA)
About Us
Career Opportunities